Back to Top

My Weather Underground Personal Weather Station Historical Data with Graphs...

Delerius Weather Station Historical Data
 
Daily Summary for August 11, 2020 Units:  English    Metric   Both
Daily Weekly Monthly Yearly
  Current: High: Low: Average:
Temperature: 62.2 °F 62.4 °F 60.1 °F 61.3 °F
Dew Point: 61.3 °F 61.7 °F 58.8 °F 60.1 °F
Humidity: 97% 98% 94% 96%
Wind Speed: 8.7mph 9.4mph 0mph 5.1mph
Wind Gust: 14mph 16mph - -
WindNE - - SSE
Pressure: 30 in 30 in 30 in -
Precipitation: 0 in      
 
 
Tabular Data for August 11, 2020
Time Temperature Dew Point Pressure Wind Wind Speed Wind Gust Humidity Rainfall Rate (Hourly) solar
00:04 62.2 °F 60.4 °F 30 in ENE 8.5 mph 13 mph 94% 0 in 0 W/m2
00:09 62.2 °F 60.4 °F 30 in ENE 8.7 mph 16 mph 94% 0 in 0 W/m2
00:14 62.2 °F 60.4 °F 30 in ENE 9.2 mph 16 mph 94% 0 in 0 W/m2
00:19 62.2 °F 60.4 °F 30 in ENE 7.8 mph 12 mph 94% 0 in 0 W/m2
00:24 62.2 °F 60.6 °F 30 in ENE 7.5 mph 14 mph 94% 0 in 0 W/m2
00:29 62.4 °F 60.6 °F 30 in NE 5.7 mph 14 mph 94% 0 in 0 W/m2
00:34 62.2 °F 60.6 °F 30 in NE 4.6 mph 9 mph 94% 0 in 0 W/m2
00:39 62.2 °F 60.4 °F 30 in NE 1.1 mph 7 mph 94% 0 in 0 W/m2
00:44 62.2 °F 60.4 °F 30 in NNE 1.9 mph 6 mph 94% 0 in 0 W/m2
00:49 62.2 °F 60.6 °F 30 in NE 1.6 mph 6 mph 94.1% 0 in 0 W/m2
00:54 62.2 °F 60.6 °F 30 in Calm   4 mph 94.7% 0 in 0 W/m2
00:59 62.2 °F 60.6 °F 30 in NE 0.9 mph 4 mph 94.7% 0 in 0 W/m2
01:04 62.2 °F 60.8 °F 30 in NE 0.4 mph 2 mph 95% 0 in 0 W/m2
01:09 62.2 °F 60.8 °F 30 in NE 1.9 mph 5 mph 95% 0 in 0 W/m2
01:14 62.1 °F 60.3 °F 30 in NNE 1.2 mph 5 mph 94.1% 0 in 0 W/m2
01:19 61.9 °F 60.1 °F 30 in NNE 1.9 mph 5 mph 94% 0 in 0 W/m2
01:24 61.9 °F 60.1 °F 30 in NE 1.1 mph 5 mph 94.1% 0 in 0 W/m2
01:29 61.9 °F 60.4 °F 30 in NE 0.7 mph 4 mph 95% 0 in 0 W/m2
01:34 61.9 °F 60.4 °F 30 in NE 1 mph 5 mph 95% 0 in 0 W/m2
01:39 61.9 °F 60.4 °F 30 in NE 2.4 mph 7 mph 95% 0 in 0 W/m2
01:44 61.7 °F 60.3 °F 30 in NE 3.8 mph 7 mph 95% 0 in 0 W/m2
01:49 61.7 °F 60.3 °F 30 in NE 3.1 mph 7 mph 95% 0 in 0 W/m2
01:54 61.7 °F 60.3 °F 30 in NE 4 mph 8 mph 95% 0 in 0 W/m2
01:59 61.5 °F 60.1 °F 30 in ENE 3.5 mph 9 mph 95% 0 in 0 W/m2
02:04 61.5 °F 60.1 °F 30 in ENE 4.9 mph 10 mph 95% 0 in 0 W/m2
02:09 61.5 °F 60.1 °F 30 in ENE 6.2 mph 10 mph 95% 0 in 0 W/m2
02:14 61.7 °F 60.3 °F 30 in ENE 6.3 mph 11 mph 95% 0 in 0 W/m2
02:19 61.7 °F 60.3 °F 30 in ENE 6.9 mph 12 mph 95% 0 in 0 W/m2
02:24 61.9 °F 60.4 °F 30 in ENE 4.8 mph 12 mph 95% 0 in 0 W/m2
02:29 61.9 °F 60.4 °F 30 in ENE 5.3 mph 10 mph 95% 0 in 0 W/m2
02:30 61.9 °F 60.4 °F 30 in ENE 6 mph 9 mph 95% 0 in 0 W/m2
02:39 61.9 °F 60.4 °F 30 in NE 5.1 mph 11 mph 95% 0 in 0 W/m2
02:44 61.7 °F 60.3 °F 30 in NNE 2.4 mph 8 mph 95% 0 in 0 W/m2
02:49 61.3 °F 60.1 °F 30 in North 2.5 mph 6 mph 95% 0 in 0 W/m2
02:54 61.3 °F 59.7 °F 30 in NNW 0.9 mph 4 mph 95% 0 in 0 W/m2
02:59 61.2 °F 59.7 °F 30 in Calm   2 mph 95% 0 in 0 W/m2
03:04 61.2 °F 59.7 °F 30 in North 1.6 mph 4 mph 95% 0 in 0 W/m2
03:09 61 °F 59.5 °F 30 in North 0.9 mph 4 mph 95% 0 in 0 W/m2
03:14 61 °F 59.5 °F 30 in NE 1.6 mph 6 mph 95% 0 in 0 W/m2
03:19 61 °F 59.7 °F 30 in NE 1.9 mph 6 mph 95.7% 0 in 0 W/m2
03:24 61.2 °F 60.1 °F 30 in NE 2.2 mph 7 mph 96% 0 in 0 W/m2
03:29 61.2 °F 60.1 °F 30 in NE 3.1 mph 7 mph 96% 0 in 0 W/m2
03:34 61.2 °F 60.1 °F 30 in NE 2.3 mph 5 mph 96% 0 in 0 W/m2
03:39 61.2 °F 59.7 °F 30 in North 2.1 mph 5 mph 95.5% 0 in 0 W/m2
03:44 60.4 °F 59.2 °F 30 in NNW 4 mph 5 mph 95% 0 in 0 W/m2
03:49 60.3 °F 58.8 °F 30 in NW 3 mph 5 mph 95% 0 in 0 W/m2
03:54 60.1 °F 58.8 °F 30 in NNW 3.9 mph 7 mph 95.6% 0 in 0 W/m2
03:59 60.3 °F 59.2 °F 30 in NW 5.8 mph 8 mph 96% 0 in 0 W/m2
04:04 60.3 °F 59.2 °F 30 in NW 4.5 mph 7 mph 96% 0 in 0 W/m2
04:09 60.3 °F 59.2 °F 30 in NNW 5 mph 8 mph 96% 0 in 0 W/m2
04:14 60.4 °F 59.4 °F 30 in NW 6.8 mph 10 mph 96% 0 in 0 W/m2
04:19 60.4 °F 59.4 °F 30 in NNW 8.4 mph 11 mph 96% 0 in 0 W/m2
04:24 60.6 °F 59.5 °F 30 in NW 9.4 mph 12 mph 96% 0 in 0 W/m2
04:29 60.6 °F 59.5 °F 30 in NNW 8.6 mph 10 mph 96.2% 0 in 0 W/m2
04:34 60.6 °F 59.9 °F 30 in NNW 8.5 mph 12 mph 97% 0 in 0 W/m2
04:39 61 °F 60.1 °F 30 in NNW 8.4 mph 10 mph 97% 0 in 0 W/m2
04:44 61 °F 60.1 °F 30 in NNW 8.4 mph 11 mph 97% 0 in 0 W/m2
04:49 61 °F 60.1 °F 30 in NNW 8.5 mph 11 mph 97% 0 in 0 W/m2
04:54 61.2 °F 60.3 °F 30 in NNW 8.9 mph 11 mph 97% 0 in 0 W/m2
04:59 61.2 °F 60.3 °F 30 in NNW 7.9 mph 12 mph 97% 0 in 0 W/m2
05:04 61.2 °F 60.3 °F 30 in NNW 8.4 mph 12 mph 97% 0 in 0 W/m2
05:09 61.2 °F 60.3 °F 30 in NNW 7.1 mph 9 mph 97% 0 in 0 W/m2
05:14 61.2 °F 59.9 °F 30 in NNW 7 mph 9 mph 96% 0 in 0 W/m2
05:19 61 °F 59.9 °F 30 in NNW 7.3 mph 10 mph 96.6% 0 in 0 W/m2
05:24 60.8 °F 59.9 °F 30 in NNW 7 mph 10 mph 97% 0 in 0 W/m2
05:29 60.8 °F 59.9 °F 30 in NNW 6.5 mph 10 mph 97% 0 in 0 W/m2
05:34 60.6 °F 59.9 °F 30 in NNW 7.4 mph 9 mph 97% 0 in 0 W/m2
05:39 60.6 °F 59.7 °F 30 in NNW 8 mph 11 mph 97% 0 in 0 W/m2
05:44 60.6 °F 59.7 °F 30 in NNW 8 mph 10 mph 97% 0 in 5 W/m2
05:49 60.6 °F 59.7 °F 30 in NNW 7.2 mph 10 mph 97% 0 in 9 W/m2
05:54 60.6 °F 59.7 °F 30 in NNW 7 mph 10 mph 97% 0 in 12 W/m2
05:59 60.6 °F 59.7 °F 30 in NNW 8.4 mph 11 mph 97% 0 in 16 W/m2
06:04 60.6 °F 59.7 °F 30 in North 7.6 mph 10 mph 97% 0 in 21 W/m2
06:09 60.4 °F 59.7 °F 30 in North 7 mph 9 mph 97% 0 in 26 W/m2
06:14 60.4 °F 59.5 °F 30 in NNW 6.8 mph 9 mph 97% 0 in 32 W/m2
06:19 60.4 °F 59.7 °F 30 in NNW 7.3 mph 10 mph 97% 0 in 35 W/m2
06:24 60.6 °F 59.7 °F 30 in NNW 6.5 mph 10 mph 97% 0 in 40 W/m2
06:29 60.6 °F 59.7 °F 30 in North 5.5 mph 9 mph 97% 0 in 42 W/m2
06:34 60.6 °F 59.7 °F 30 in North 6.5 mph 9 mph 97% 0 in 49 W/m2
06:39 60.8 °F 59.9 °F 30 in North 6.2 mph 10 mph 97% 0 in 56 W/m2
06:44 61 °F 60.1 °F 30 in North 5.2 mph 10 mph 97% 0 in 69 W/m2
06:49 61 °F 60.1 °F 30 in NNE 3.9 mph 8 mph 97% 0 in 83 W/m2
06:54 61.3 °F 60.4 °F 30 in NE 2.9 mph 8 mph 97% 0 in 97 W/m2
06:59 61.5 °F 60.8 °F 30 in NE 2.3 mph 9 mph 97.5% 0 in 107 W/m2
07:04 61.9 °F 61.2 °F 30 in NE 2.8 mph 8 mph 98% 0 in 107 W/m2
07:09 62.1 °F 61.3 °F 30 in NE 4.8 mph 11 mph 97.8% 0 in 98 W/m2
07:14 62.1 °F 61.2 °F 30 in NE 4.8 mph 11 mph 97% 0 in 163 W/m2
07:19 62.2 °F 61.7 °F 30 in ENE 5 mph 10 mph 98% 0 in 155 W/m2
07:24 62.2 °F 61.7 °F 30 in ENE 6.3 mph 12 mph 98% 0 in 148 W/m2
07:29 62.1 °F 61.3 °F 30 in NE 7.9 mph 12 mph 97.3% 0 in 149 W/m2
07:34 62.1 °F 61.2 °F 30 in NE 7.1 mph 14 mph 97% 0 in 149 W/m2
07:39 62.1 °F 61.3 °F 30 in NE 7.1 mph 14 mph 97% 0 in 171 W/m2
07:44 62.2 °F 61.3 °F 30 in NE 8.7 mph 14 mph 97% 0 in 174 W/m2
North Lincolnshire Weather
Compliments of Weather Underground - 2 mb

Data updates at regular intervals.